sensor_id;sensor_type;location;lat;lon;timestamp;P1;durP1;ratioP1;P2;durP2;ratioP2
67979;SDS011;54760;47.490;19.030;2024-02-26T00:00:06;19.77;;;14.18;;
67979;SDS011;54760;47.490;19.030;2024-02-26T00:02:35;18.42;;;13.70;;
67979;SDS011;54760;47.490;19.030;2024-02-26T00:05:04;18.92;;;14.50;;
67979;SDS011;54760;47.490;19.030;2024-02-26T00:07:31;19.05;;;13.73;;
67979;SDS011;54760;47.490;19.030;2024-02-26T00:09:56;18.40;;;13.80;;
67979;SDS011;54760;47.490;19.030;2024-02-26T00:12:21;18.45;;;13.77;;
67979;SDS011;54760;47.490;19.030;2024-02-26T00:14:47;16.02;;;12.15;;
67979;SDS011;54760;47.490;19.030;2024-02-26T00:17:14;16.37;;;12.52;;
67979;SDS011;54760;47.490;19.030;2024-02-26T00:19:40;15.38;;;11.77;;
67979;SDS011;54760;47.490;19.030;2024-02-26T00:22:06;15.68;;;11.07;;
67979;SDS011;54760;47.490;19.030;2024-02-26T00:24:31;15.68;;;10.98;;
67979;SDS011;54760;47.490;19.030;2024-02-26T00:26:56;16.37;;;11.30;;
67979;SDS011;54760;47.490;19.030;2024-02-26T00:29:22;14.02;;;10.95;;
67979;SDS011;54760;47.490;19.030;2024-02-26T00:31:48;17.45;;;11.38;;
67979;SDS011;54760;47.490;19.030;2024-02-26T00:34:13;14.80;;;10.45;;
67979;SDS011;54760;47.490;19.030;2024-02-26T00:36:39;15.40;;;10.73;;
67979;SDS011;54760;47.490;19.030;2024-02-26T00:39:04;17.95;;;11.73;;
67979;SDS011;54760;47.490;19.030;2024-02-26T00:41:30;15.25;;;11.00;;
67979;SDS011;54760;47.490;19.030;2024-02-26T00:43:55;15.13;;;10.10;;
67979;SDS011;54760;47.490;19.030;2024-02-26T00:46:20;13.60;;;10.20;;
67979;SDS011;54760;47.490;19.030;2024-02-26T00:48:46;16.40;;;11.10;;
67979;SDS011;54760;47.490;19.030;2024-02-26T00:51:11;14.25;;;10.70;;
67979;SDS011;54760;47.490;19.030;2024-02-26T00:53:37;14.45;;;10.95;;
67979;SDS011;54760;47.490;19.030;2024-02-26T00:56:02;15.48;;;11.02;;
67979;SDS011;54760;47.490;19.030;2024-02-26T00:58:28;13.98;;;10.48;;
67979;SDS011;54760;47.490;19.030;2024-02-26T01:00:53;15.05;;;11.18;;
67979;SDS011;54760;47.490;19.030;2024-02-26T01:03:18;14.70;;;10.55;;
67979;SDS011;54760;47.490;19.030;2024-02-26T01:05:44;16.45;;;11.23;;
67979;SDS011;54760;47.490;19.030;2024-02-26T01:08:10;13.50;;;10.27;;
67979;SDS011;54760;47.490;19.030;2024-02-26T01:10:35;15.38;;;10.63;;
67979;SDS011;54760;47.490;19.030;2024-02-26T01:13:01;14.20;;;10.18;;
67979;SDS011;54760;47.490;19.030;2024-02-26T01:15:27;12.37;;;9.90;;
67979;SDS011;54760;47.490;19.030;2024-02-26T01:17:52;13.50;;;10.18;;
67979;SDS011;54760;47.490;19.030;2024-02-26T01:20:18;13.80;;;9.82;;
67979;SDS011;54760;47.490;19.030;2024-02-26T01:22:43;12.48;;;9.50;;
67979;SDS011;54760;47.490;19.030;2024-02-26T01:25:09;13.00;;;9.80;;
67979;SDS011;54760;47.490;19.030;2024-02-26T01:27:35;13.23;;;10.05;;
67979;SDS011;54760;47.490;19.030;2024-02-26T01:30:06;12.93;;;9.85;;
67979;SDS011;54760;47.490;19.030;2024-02-26T01:32:32;14.32;;;10.25;;
67979;SDS011;54760;47.490;19.030;2024-02-26T01:34:57;14.85;;;9.88;;
67979;SDS011;54760;47.490;19.030;2024-02-26T01:37:22;13.32;;;8.85;;
67979;SDS011;54760;47.490;19.030;2024-02-26T01:39:48;14.20;;;9.73;;
67979;SDS011;54760;47.490;19.030;2024-02-26T01:42:13;13.70;;;9.55;;
67979;SDS011;54760;47.490;19.030;2024-02-26T01:44:39;16.67;;;10.18;;
67979;SDS011;54760;47.490;19.030;2024-02-26T01:47:07;12.25;;;9.48;;
67979;SDS011;54760;47.490;19.030;2024-02-26T01:49:36;13.18;;;9.43;;
67979;SDS011;54760;47.490;19.030;2024-02-26T01:52:02;14.60;;;9.60;;
67979;SDS011;54760;47.490;19.030;2024-02-26T01:54:31;13.52;;;9.50;;
67979;SDS011;54760;47.490;19.030;2024-02-26T01:56:59;13.62;;;10.05;;
67979;SDS011;54760;47.490;19.030;2024-02-26T01:59:25;12.23;;;9.65;;
67979;SDS011;54760;47.490;19.030;2024-02-26T02:01:53;13.60;;;10.30;;
67979;SDS011;54760;47.490;19.030;2024-02-26T02:04:22;12.85;;;9.70;;
67979;SDS011;54760;47.490;19.030;2024-02-26T02:06:48;13.60;;;9.65;;
67979;SDS011;54760;47.490;19.030;2024-02-26T02:09:14;14.30;;;10.68;;
67979;SDS011;54760;47.490;19.030;2024-02-26T02:11:40;12.88;;;9.88;;
67979;SDS011;54760;47.490;19.030;2024-02-26T02:14:06;14.13;;;10.05;;
67979;SDS011;54760;47.490;19.030;2024-02-26T02:16:31;13.45;;;10.13;;
67979;SDS011;54760;47.490;19.030;2024-02-26T02:18:57;14.50;;;10.82;;
67979;SDS011;54760;47.490;19.030;2024-02-26T02:21:23;13.77;;;10.38;;
67979;SDS011;54760;47.490;19.030;2024-02-26T02:23:48;15.70;;;10.15;;
67979;SDS011;54760;47.490;19.030;2024-02-26T02:26:14;16.17;;;10.88;;
67979;SDS011;54760;47.490;19.030;2024-02-26T02:28:41;13.35;;;10.18;;
67979;SDS011;54760;47.490;19.030;2024-02-26T02:31:07;15.18;;;10.80;;
67979;SDS011;54760;47.490;19.030;2024-02-26T02:33:33;15.45;;;10.10;;
67979;SDS011;54760;47.490;19.030;2024-02-26T02:35:59;15.48;;;10.80;;
67979;SDS011;54760;47.490;19.030;2024-02-26T02:38:25;15.00;;;10.90;;
67979;SDS011;54760;47.490;19.030;2024-02-26T02:40:53;15.27;;;10.65;;
67979;SDS011;54760;47.490;19.030;2024-02-26T02:43:19;14.68;;;10.73;;
67979;SDS011;54760;47.490;19.030;2024-02-26T02:45:44;14.07;;;10.68;;
67979;SDS011;54760;47.490;19.030;2024-02-26T02:48:13;14.10;;;10.65;;
67979;SDS011;54760;47.490;19.030;2024-02-26T02:50:38;16.35;;;11.05;;
67979;SDS011;54760;47.490;19.030;2024-02-26T02:53:04;16.27;;;10.80;;
67979;SDS011;54760;47.490;19.030;2024-02-26T02:55:29;16.73;;;11.38;;
67979;SDS011;54760;47.490;19.030;2024-02-26T02:57:55;15.98;;;11.20;;
67979;SDS011;54760;47.490;19.030;2024-02-26T03:00:20;13.95;;;11.10;;
67979;SDS011;54760;47.490;19.030;2024-02-26T03:02:48;15.75;;;10.57;;
67979;SDS011;54760;47.490;19.030;2024-02-26T03:05:14;15.68;;;11.40;;
67979;SDS011;54760;47.490;19.030;2024-02-26T03:07:39;14.35;;;10.48;;
67979;SDS011;54760;47.490;19.030;2024-02-26T03:10:05;20.95;;;11.40;;
67979;SDS011;54760;47.490;19.030;2024-02-26T03:12:30;13.75;;;10.80;;
67979;SDS011;54760;47.490;19.030;2024-02-26T03:14:56;15.80;;;11.27;;
67979;SDS011;54760;47.490;19.030;2024-02-26T03:17:22;15.50;;;11.52;;
67979;SDS011;54760;47.490;19.030;2024-02-26T03:19:49;15.82;;;11.07;;
67979;SDS011;54760;47.490;19.030;2024-02-26T03:22:18;15.18;;;11.00;;
67979;SDS011;54760;47.490;19.030;2024-02-26T03:24:44;17.00;;;12.07;;
67979;SDS011;54760;47.490;19.030;2024-02-26T03:27:10;16.98;;;11.12;;
67979;SDS011;54760;47.490;19.030;2024-02-26T03:29:36;15.10;;;11.85;;
67979;SDS011;54760;47.490;19.030;2024-02-26T03:32:02;14.18;;;11.32;;
67979;SDS011;54760;47.490;19.030;2024-02-26T03:34:28;17.12;;;12.30;;
67979;SDS011;54760;47.490;19.030;2024-02-26T03:36:53;15.80;;;12.10;;
67979;SDS011;54760;47.490;19.030;2024-02-26T03:39:19;15.82;;;11.95;;
67979;SDS011;54760;47.490;19.030;2024-02-26T03:41:44;15.13;;;11.55;;
67979;SDS011;54760;47.490;19.030;2024-02-26T03:44:09;16.83;;;12.55;;
67979;SDS011;54760;47.490;19.030;2024-02-26T03:46:35;16.27;;;11.95;;
67979;SDS011;54760;47.490;19.030;2024-02-26T03:49:00;13.60;;;10.57;;
67979;SDS011;54760;47.490;19.030;2024-02-26T03:51:26;14.98;;;10.40;;
67979;SDS011;54760;47.490;19.030;2024-02-26T03:53:56;15.70;;;11.00;;
67979;SDS011;54760;47.490;19.030;2024-02-26T03:56:22;15.40;;;10.70;;
67979;SDS011;54760;47.490;19.030;2024-02-26T03:58:48;13.18;;;9.70;;
67979;SDS011;54760;47.490;19.030;2024-02-26T04:01:13;13.77;;;9.82;;
67979;SDS011;54760;47.490;19.030;2024-02-26T04:03:38;13.77;;;10.05;;
67979;SDS011;54760;47.490;19.030;2024-02-26T04:06:04;12.55;;;9.63;;
67979;SDS011;54760;47.490;19.030;2024-02-26T04:08:29;13.43;;;9.73;;
67979;SDS011;54760;47.490;19.030;2024-02-26T04:10:55;12.98;;;9.57;;
67979;SDS011;54760;47.490;19.030;2024-02-26T04:13:20;16.37;;;10.45;;
67979;SDS011;54760;47.490;19.030;2024-02-26T04:15:46;12.00;;;9.10;;
67979;SDS011;54760;47.490;19.030;2024-02-26T04:18:12;14.15;;;9.70;;
67979;SDS011;54760;47.490;19.030;2024-02-26T04:20:37;13.57;;;9.55;;
67979;SDS011;54760;47.490;19.030;2024-02-26T04:23:03;16.02;;;9.35;;
67979;SDS011;54760;47.490;19.030;2024-02-26T04:25:29;15.73;;;9.65;;
67979;SDS011;54760;47.490;19.030;2024-02-26T04:27:54;14.93;;;10.15;;
67979;SDS011;54760;47.490;19.030;2024-02-26T04:30:19;12.65;;;9.60;;
67979;SDS011;54760;47.490;19.030;2024-02-26T04:32:45;13.52;;;8.98;;
67979;SDS011;54760;47.490;19.030;2024-02-26T04:35:10;13.20;;;9.05;;
67979;SDS011;54760;47.490;19.030;2024-02-26T04:37:36;13.27;;;9.40;;
67979;SDS011;54760;47.490;19.030;2024-02-26T04:40:01;12.90;;;9.80;;
67979;SDS011;54760;47.490;19.030;2024-02-26T04:42:27;13.10;;;8.75;;
67979;SDS011;54760;47.490;19.030;2024-02-26T04:44:54;13.05;;;8.57;;
67979;SDS011;54760;47.490;19.030;2024-02-26T04:47:19;13.13;;;9.00;;
67979;SDS011;54760;47.490;19.030;2024-02-26T04:49:47;11.45;;;8.50;;
67979;SDS011;54760;47.490;19.030;2024-02-26T04:52:13;11.73;;;9.05;;
67979;SDS011;54760;47.490;19.030;2024-02-26T04:54:39;10.77;;;8.55;;
67979;SDS011;54760;47.490;19.030;2024-02-26T04:57:04;10.25;;;8.45;;
67979;SDS011;54760;47.490;19.030;2024-02-26T04:59:30;12.73;;;8.85;;
67979;SDS011;54760;47.490;19.030;2024-02-26T05:01:55;11.60;;;8.80;;
67979;SDS011;54760;47.490;19.030;2024-02-26T05:04:20;10.43;;;7.97;;
67979;SDS011;54760;47.490;19.030;2024-02-26T05:06:46;11.95;;;8.15;;
67979;SDS011;54760;47.490;19.030;2024-02-26T05:09:11;10.98;;;8.10;;
67979;SDS011;54760;47.490;19.030;2024-02-26T05:11:37;12.05;;;8.40;;
67979;SDS011;54760;47.490;19.030;2024-02-26T05:14:02;12.55;;;8.45;;
67979;SDS011;54760;47.490;19.030;2024-02-26T05:16:28;12.45;;;8.63;;
67979;SDS011;54760;47.490;19.030;2024-02-26T05:18:55;13.68;;;8.38;;
67979;SDS011;54760;47.490;19.030;2024-02-26T05:21:20;13.00;;;8.77;;
67979;SDS011;54760;47.490;19.030;2024-02-26T05:23:46;13.23;;;8.93;;
67979;SDS011;54760;47.490;19.030;2024-02-26T05:26:11;14.05;;;9.20;;
67979;SDS011;54760;47.490;19.030;2024-02-26T05:28:36;13.70;;;9.73;;
67979;SDS011;54760;47.490;19.030;2024-02-26T05:31:04;12.27;;;8.98;;
67979;SDS011;54760;47.490;19.030;2024-02-26T05:33:30;12.60;;;10.02;;
67979;SDS011;54760;47.490;19.030;2024-02-26T05:35:56;13.13;;;10.00;;
67979;SDS011;54760;47.490;19.030;2024-02-26T05:38:21;14.13;;;10.57;;
67979;SDS011;54760;47.490;19.030;2024-02-26T05:40:46;15.50;;;10.70;;
67979;SDS011;54760;47.490;19.030;2024-02-26T05:43:12;15.32;;;10.60;;
67979;SDS011;54760;47.490;19.030;2024-02-26T05:45:40;16.45;;;11.02;;
67979;SDS011;54760;47.490;19.030;2024-02-26T05:48:06;15.00;;;10.85;;
67979;SDS011;54760;47.490;19.030;2024-02-26T05:50:31;16.27;;;11.52;;
67979;SDS011;54760;47.490;19.030;2024-02-26T05:52:57;18.58;;;11.73;;
67979;SDS011;54760;47.490;19.030;2024-02-26T05:55:22;16.77;;;11.25;;
67979;SDS011;54760;47.490;19.030;2024-02-26T05:57:47;15.93;;;11.40;;
67979;SDS011;54760;47.490;19.030;2024-02-26T06:00:14;17.83;;;11.75;;
67979;SDS011;54760;47.490;19.030;2024-02-26T06:02:40;17.15;;;11.50;;
67979;SDS011;54760;47.490;19.030;2024-02-26T06:05:05;16.23;;;11.40;;
67979;SDS011;54760;47.490;19.030;2024-02-26T06:07:33;18.23;;;12.20;;
67979;SDS011;54760;47.490;19.030;2024-02-26T06:09:58;16.02;;;11.10;;
67979;SDS011;54760;47.490;19.030;2024-02-26T06:12:24;14.48;;;10.82;;
67979;SDS011;54760;47.490;19.030;2024-02-26T06:14:49;15.60;;;11.32;;
67979;SDS011;54760;47.490;19.030;2024-02-26T06:17:15;15.63;;;11.02;;
67979;SDS011;54760;47.490;19.030;2024-02-26T06:19:40;17.12;;;11.18;;
67979;SDS011;54760;47.490;19.030;2024-02-26T06:22:05;16.40;;;11.95;;
67979;SDS011;54760;47.490;19.030;2024-02-26T06:24:31;16.85;;;11.30;;
67979;SDS011;54760;47.490;19.030;2024-02-26T06:26:56;14.55;;;10.90;;
67979;SDS011;54760;47.490;19.030;2024-02-26T06:29:21;16.20;;;12.00;;
67979;SDS011;54760;47.490;19.030;2024-02-26T06:31:47;17.08;;;11.05;;
67979;SDS011;54760;47.490;19.030;2024-02-26T06:34:13;18.58;;;11.73;;
67979;SDS011;54760;47.490;19.030;2024-02-26T06:36:39;14.25;;;9.95;;
67979;SDS011;54760;47.490;19.030;2024-02-26T06:39:04;15.52;;;10.95;;
67979;SDS011;54760;47.490;19.030;2024-02-26T06:41:30;15.40;;;10.02;;
67979;SDS011;54760;47.490;19.030;2024-02-26T06:43:56;17.00;;;11.75;;
67979;SDS011;54760;47.490;19.030;2024-02-26T06:46:22;15.80;;;11.05;;
67979;SDS011;54760;47.490;19.030;2024-02-26T06:48:48;15.05;;;11.02;;
67979;SDS011;54760;47.490;19.030;2024-02-26T06:51:14;17.25;;;10.95;;
67979;SDS011;54760;47.490;19.030;2024-02-26T06:53:39;16.83;;;11.00;;
67979;SDS011;54760;47.490;19.030;2024-02-26T06:56:05;17.00;;;11.50;;
67979;SDS011;54760;47.490;19.030;2024-02-26T06:58:30;17.10;;;11.35;;
67979;SDS011;54760;47.490;19.030;2024-02-26T07:00:56;15.52;;;11.30;;
67979;SDS011;54760;47.490;19.030;2024-02-26T07:03:21;18.33;;;12.07;;
67979;SDS011;54760;47.490;19.030;2024-02-26T07:05:47;17.40;;;11.63;;
67979;SDS011;54760;47.490;19.030;2024-02-26T07:08:13;17.75;;;13.55;;
67979;SDS011;54760;47.490;19.030;2024-02-26T07:10:39;17.20;;;11.40;;
67979;SDS011;54760;47.490;19.030;2024-02-26T07:13:04;17.15;;;11.85;;
67979;SDS011;54760;47.490;19.030;2024-02-26T07:15:30;16.87;;;12.07;;
67979;SDS011;54760;47.490;19.030;2024-02-26T07:17:55;16.65;;;11.70;;
67979;SDS011;54760;47.490;19.030;2024-02-26T07:20:21;17.30;;;12.18;;
67979;SDS011;54760;47.490;19.030;2024-02-26T07:22:46;15.70;;;12.32;;
67979;SDS011;54760;47.490;19.030;2024-02-26T07:25:12;18.10;;;12.55;;
67979;SDS011;54760;47.490;19.030;2024-02-26T07:27:38;16.23;;;12.70;;
67979;SDS011;54760;47.490;19.030;2024-02-26T07:30:05;16.48;;;11.75;;
67979;SDS011;54760;47.490;19.030;2024-02-26T07:32:31;19.42;;;13.00;;
67979;SDS011;54760;47.490;19.030;2024-02-26T07:34:57;18.40;;;12.73;;
67979;SDS011;54760;47.490;19.030;2024-02-26T07:37:22;19.30;;;13.48;;
67979;SDS011;54760;47.490;19.030;2024-02-26T07:39:47;21.98;;;15.10;;
67979;SDS011;54760;47.490;19.030;2024-02-26T07:42:13;19.98;;;15.07;;
67979;SDS011;54760;47.490;19.030;2024-02-26T07:44:38;22.83;;;16.00;;
67979;SDS011;54760;47.490;19.030;2024-02-26T07:47:07;22.77;;;16.30;;
67979;SDS011;54760;47.490;19.030;2024-02-26T07:49:33;21.98;;;16.08;;
67979;SDS011;54760;47.490;19.030;2024-02-26T07:51:59;26.00;;;16.77;;
67979;SDS011;54760;47.490;19.030;2024-02-26T07:54:24;21.58;;;17.20;;
67979;SDS011;54760;47.490;19.030;2024-02-26T07:56:50;24.02;;;17.10;;
67979;SDS011;54760;47.490;19.030;2024-02-26T07:59:15;25.70;;;16.33;;
67979;SDS011;54760;47.490;19.030;2024-02-26T08:01:40;25.02;;;16.15;;
67979;SDS011;54760;47.490;19.030;2024-02-26T08:04:06;22.80;;;16.52;;
67979;SDS011;54760;47.490;19.030;2024-02-26T08:06:32;22.45;;;16.83;;
67979;SDS011;54760;47.490;19.030;2024-02-26T08:08:57;22.62;;;16.92;;
67979;SDS011;54760;47.490;19.030;2024-02-26T08:11:22;21.42;;;16.12;;
67979;SDS011;54760;47.490;19.030;2024-02-26T08:13:48;24.08;;;16.20;;
67979;SDS011;54760;47.490;19.030;2024-02-26T08:16:13;22.75;;;16.23;;
67979;SDS011;54760;47.490;19.030;2024-02-26T08:18:38;25.62;;;18.27;;
67979;SDS011;54760;47.490;19.030;2024-02-26T08:21:04;25.42;;;19.40;;
67979;SDS011;54760;47.490;19.030;2024-02-26T08:23:30;22.92;;;18.40;;
67979;SDS011;54760;47.490;19.030;2024-02-26T08:25:56;24.30;;;18.60;;
67979;SDS011;54760;47.490;19.030;2024-02-26T08:28:22;24.02;;;18.10;;
67979;SDS011;54760;47.490;19.030;2024-02-26T08:30:47;22.67;;;17.85;;
67979;SDS011;54760;47.490;19.030;2024-02-26T08:33:13;23.95;;;17.87;;
67979;SDS011;54760;47.490;19.030;2024-02-26T08:35:38;23.60;;;18.23;;
67979;SDS011;54760;47.490;19.030;2024-02-26T08:38:04;24.30;;;18.37;;
67979;SDS011;54760;47.490;19.030;2024-02-26T08:40:29;24.40;;;17.62;;
67979;SDS011;54760;47.490;19.030;2024-02-26T08:42:55;24.00;;;17.92;;
67979;SDS011;54760;47.490;19.030;2024-02-26T08:45:21;23.85;;;17.58;;
67979;SDS011;54760;47.490;19.030;2024-02-26T08:47:46;22.87;;;17.60;;
67979;SDS011;54760;47.490;19.030;2024-02-26T08:50:14;22.40;;;17.77;;
67979;SDS011;54760;47.490;19.030;2024-02-26T08:52:39;25.95;;;18.35;;
67979;SDS011;54760;47.490;19.030;2024-02-26T08:55:05;28.00;;;19.50;;
67979;SDS011;54760;47.490;19.030;2024-02-26T08:57:33;28.52;;;18.25;;
67979;SDS011;54760;47.490;19.030;2024-02-26T08:59:59;27.02;;;19.48;;
67979;SDS011;54760;47.490;19.030;2024-02-26T09:02:25;23.58;;;18.20;;
67979;SDS011;54760;47.490;19.030;2024-02-26T09:04:51;20.88;;;17.73;;
67979;SDS011;54760;47.490;19.030;2024-02-26T09:07:19;28.25;;;18.12;;
67979;SDS011;54760;47.490;19.030;2024-02-26T09:09:44;23.00;;;16.83;;
67979;SDS011;54760;47.490;19.030;2024-02-26T09:12:10;23.17;;;17.35;;
67979;SDS011;54760;47.490;19.030;2024-02-26T09:14:35;22.02;;;16.42;;
67979;SDS011;54760;47.490;19.030;2024-02-26T09:17:01;23.77;;;17.23;;
67979;SDS011;54760;47.490;19.030;2024-02-26T09:19:26;24.58;;;18.50;;
67979;SDS011;54760;47.490;19.030;2024-02-26T09:21:52;23.80;;;18.05;;
67979;SDS011;54760;47.490;19.030;2024-02-26T09:24:22;26.42;;;18.48;;
67979;SDS011;54760;47.490;19.030;2024-02-26T09:26:48;22.90;;;17.30;;
67979;SDS011;54760;47.490;19.030;2024-02-26T09:29:13;25.23;;;18.15;;
67979;SDS011;54760;47.490;19.030;2024-02-26T09:31:39;25.60;;;17.90;;
67979;SDS011;54760;47.490;19.030;2024-02-26T09:34:06;21.67;;;17.70;;
67979;SDS011;54760;47.490;19.030;2024-02-26T09:36:31;25.67;;;17.00;;
67979;SDS011;54760;47.490;19.030;2024-02-26T09:38:57;22.05;;;17.30;;
67979;SDS011;54760;47.490;19.030;2024-02-26T09:41:22;22.45;;;16.90;;
67979;SDS011;54760;47.490;19.030;2024-02-26T09:43:48;20.80;;;16.42;;
67979;SDS011;54760;47.490;19.030;2024-02-26T09:46:17;19.98;;;15.93;;
67979;SDS011;54760;47.490;19.030;2024-02-26T09:48:45;20.70;;;15.98;;
67979;SDS011;54760;47.490;19.030;2024-02-26T09:51:12;19.95;;;15.77;;
67979;SDS011;54760;47.490;19.030;2024-02-26T09:53:39;20.65;;;15.27;;
67979;SDS011;54760;47.490;19.030;2024-02-26T09:56:07;20.30;;;16.33;;
67979;SDS011;54760;47.490;19.030;2024-02-26T09:58:33;22.62;;;15.50;;
67979;SDS011;54760;47.490;19.030;2024-02-26T10:01:00;23.00;;;15.43;;
67979;SDS011;54760;47.490;19.030;2024-02-26T10:03:31;22.73;;;16.73;;
67979;SDS011;54760;47.490;19.030;2024-02-26T10:06:01;21.65;;;16.48;;
67979;SDS011;54760;47.490;19.030;2024-02-26T10:08:29;20.95;;;16.45;;
67979;SDS011;54760;47.490;19.030;2024-02-26T10:10:55;21.08;;;17.55;;
67979;SDS011;54760;47.490;19.030;2024-02-26T10:13:21;23.35;;;17.52;;
67979;SDS011;54760;47.490;19.030;2024-02-26T10:15:48;20.92;;;17.83;;
67979;SDS011;54760;47.490;19.030;2024-02-26T10:18:13;20.37;;;15.68;;
67979;SDS011;54760;47.490;19.030;2024-02-26T10:20:38;19.70;;;15.85;;
67979;SDS011;54760;47.490;19.030;2024-02-26T10:23:04;19.95;;;16.27;;
67979;SDS011;54760;47.490;19.030;2024-02-26T10:25:30;25.50;;;16.65;;
67979;SDS011;54760;47.490;19.030;2024-02-26T10:27:59;22.90;;;17.27;;
67979;SDS011;54760;47.490;19.030;2024-02-26T10:30:29;21.27;;;18.08;;
67979;SDS011;54760;47.490;19.030;2024-02-26T10:32:55;22.95;;;16.75;;
67979;SDS011;54760;47.490;19.030;2024-02-26T10:35:21;19.17;;;15.98;;
67979;SDS011;54760;47.490;19.030;2024-02-26T10:37:47;20.05;;;15.82;;
67979;SDS011;54760;47.490;19.030;2024-02-26T10:40:14;19.08;;;14.90;;
67979;SDS011;54760;47.490;19.030;2024-02-26T10:42:40;18.75;;;13.10;;
67979;SDS011;54760;47.490;19.030;2024-02-26T10:45:07;19.83;;;15.00;;
67979;SDS011;54760;47.490;19.030;2024-02-26T10:47:37;21.95;;;13.93;;
67979;SDS011;54760;47.490;19.030;2024-02-26T10:50:03;18.77;;;13.70;;
67979;SDS011;54760;47.490;19.030;2024-02-26T10:52:34;16.48;;;11.98;;
67979;SDS011;54760;47.490;19.030;2024-02-26T10:55:01;13.93;;;11.95;;
67979;SDS011;54760;47.490;19.030;2024-02-26T10:57:29;15.45;;;12.37;;
67979;SDS011;54760;47.490;19.030;2024-02-26T10:59:59;17.25;;;12.57;;
67979;SDS011;54760;47.490;19.030;2024-02-26T11:02:26;13.98;;;12.15;;
67979;SDS011;54760;47.490;19.030;2024-02-26T11:04:52;15.32;;;11.82;;
67979;SDS011;54760;47.490;19.030;2024-02-26T11:07:19;16.00;;;12.35;;
67979;SDS011;54760;47.490;19.030;2024-02-26T11:09:45;16.12;;;11.27;;
67979;SDS011;54760;47.490;19.030;2024-02-26T11:12:17;13.77;;;11.40;;
67979;SDS011;54760;47.490;19.030;2024-02-26T11:14:44;13.73;;;9.98;;
67979;SDS011;54760;47.490;19.030;2024-02-26T11:17:11;12.35;;;11.00;;
67979;SDS011;54760;47.490;19.030;2024-02-26T11:19:38;15.48;;;11.23;;
67979;SDS011;54760;47.490;19.030;2024-02-26T11:22:06;10.25;;;9.05;;
67979;SDS011;54760;47.490;19.030;2024-02-26T11:24:32;13.80;;;10.48;;
67979;SDS011;54760;47.490;19.030;2024-02-26T11:26:58;12.63;;;11.15;;
67979;SDS011;54760;47.490;19.030;2024-02-26T11:29:34;12.73;;;9.52;;
67979;SDS011;54760;47.490;19.030;2024-02-26T11:32:04;20.98;;;10.48;;
67979;SDS011;54760;47.490;19.030;2024-02-26T11:34:30;12.60;;;10.10;;
67979;SDS011;54760;47.490;19.030;2024-02-26T11:36:56;13.43;;;9.88;;
67979;SDS011;54760;47.490;19.030;2024-02-26T11:39:22;10.65;;;9.20;;
67979;SDS011;54760;47.490;19.030;2024-02-26T11:41:50;10.57;;;9.57;;
67979;SDS011;54760;47.490;19.030;2024-02-26T11:44:15;12.77;;;9.13;;
67979;SDS011;54760;47.490;19.030;2024-02-26T11:46:54;13.80;;;10.40;;
67979;SDS011;54760;47.490;19.030;2024-02-26T11:51:53;18.48;;;11.00;;
67979;SDS011;54760;47.490;19.030;2024-02-26T11:57:04;9.93;;;8.00;;
67979;SDS011;54760;47.490;19.030;2024-02-26T11:59:38;10.63;;;8.35;;
67979;SDS011;54760;47.490;19.030;2024-02-26T12:02:05;12.82;;;7.18;;
67979;SDS011;54760;47.490;19.030;2024-02-26T12:04:32;8.48;;;7.03;;
67979;SDS011;54760;47.490;19.030;2024-02-26T12:07:00;11.68;;;7.35;;
67979;SDS011;54760;47.490;19.030;2024-02-26T12:09:39;8.95;;;6.85;;
67979;SDS011;54760;47.490;19.030;2024-02-26T12:12:07;8.98;;;7.35;;
67979;SDS011;54760;47.490;19.030;2024-02-26T12:14:55;9.02;;;7.00;;
67979;SDS011;54760;47.490;19.030;2024-02-26T12:17:22;9.77;;;6.80;;
67979;SDS011;54760;47.490;19.030;2024-02-26T12:19:48;11.10;;;6.53;;
67979;SDS011;54760;47.490;19.030;2024-02-26T12:22:15;10.70;;;6.45;;
67979;SDS011;54760;47.490;19.030;2024-02-26T12:24:44;8.13;;;6.00;;
67979;SDS011;54760;47.490;19.030;2024-02-26T12:27:09;8.27;;;6.60;;
67979;SDS011;54760;47.490;19.030;2024-02-26T12:29:34;10.45;;;7.25;;
67979;SDS011;54760;47.490;19.030;2024-02-26T12:32:00;8.30;;;5.80;;
67979;SDS011;54760;47.490;19.030;2024-02-26T12:34:27;8.43;;;5.25;;
67979;SDS011;54760;47.490;19.030;2024-02-26T12:36:53;8.63;;;6.00;;
67979;SDS011;54760;47.490;19.030;2024-02-26T12:39:19;7.03;;;5.68;;
67979;SDS011;54760;47.490;19.030;2024-02-26T12:41:45;7.20;;;5.03;;
67979;SDS011;54760;47.490;19.030;2024-02-26T12:44:14;5.95;;;4.72;;
67979;SDS011;54760;47.490;19.030;2024-02-26T12:46:41;9.90;;;5.37;;
67979;SDS011;54760;47.490;19.030;2024-02-26T12:49:06;6.22;;;5.25;;
67979;SDS011;54760;47.490;19.030;2024-02-26T12:51:33;8.80;;;5.22;;
67979;SDS011;54760;47.490;19.030;2024-02-26T12:53:58;6.93;;;5.20;;
67979;SDS011;54760;47.490;19.030;2024-02-26T12:56:24;8.18;;;5.05;;
67979;SDS011;54760;47.490;19.030;2024-02-26T12:58:51;8.73;;;5.90;;
67979;SDS011;54760;47.490;19.030;2024-02-26T13:01:18;7.32;;;5.40;;
67979;SDS011;54760;47.490;19.030;2024-02-26T13:03:48;9.45;;;5.90;;
67979;SDS011;54760;47.490;19.030;2024-02-26T13:06:15;7.80;;;5.85;;
67979;SDS011;54760;47.490;19.030;2024-02-26T13:08:42;8.70;;;6.03;;
67979;SDS011;54760;47.490;19.030;2024-02-26T13:11:08;9.63;;;6.00;;
67979;SDS011;54760;47.490;19.030;2024-02-26T13:13:33;9.38;;;6.12;;
67979;SDS011;54760;47.490;19.030;2024-02-26T13:16:04;8.55;;;5.68;;
67979;SDS011;54760;47.490;19.030;2024-02-26T13:18:35;9.63;;;6.43;;
67979;SDS011;54760;47.490;19.030;2024-02-26T13:21:08;9.75;;;5.68;;
67979;SDS011;54760;47.490;19.030;2024-02-26T13:23:40;6.50;;;5.00;;
67979;SDS011;54760;47.490;19.030;2024-02-26T13:26:07;6.65;;;5.10;;
67979;SDS011;54760;47.490;19.030;2024-02-26T13:28:33;7.32;;;4.80;;
67979;SDS011;54760;47.490;19.030;2024-02-26T13:31:00;5.45;;;4.80;;
67979;SDS011;54760;47.490;19.030;2024-02-26T13:33:27;6.68;;;4.65;;
67979;SDS011;54760;47.490;19.030;2024-02-26T13:35:54;7.32;;;4.82;;
67979;SDS011;54760;47.490;19.030;2024-02-26T13:38:20;6.10;;;5.10;;
67979;SDS011;54760;47.490;19.030;2024-02-26T13:40:46;5.95;;;5.05;;
67979;SDS011;54760;47.490;19.030;2024-02-26T13:43:13;7.10;;;5.35;;
67979;SDS011;54760;47.490;19.030;2024-02-26T13:45:38;5.32;;;4.60;;
67979;SDS011;54760;47.490;19.030;2024-02-26T13:48:05;8.00;;;4.62;;
67979;SDS011;54760;47.490;19.030;2024-02-26T13:50:31;6.82;;;4.95;;
67979;SDS011;54760;47.490;19.030;2024-02-26T13:52:57;7.37;;;4.93;;
67979;SDS011;54760;47.490;19.030;2024-02-26T13:55:23;6.60;;;4.82;;
67979;SDS011;54760;47.490;19.030;2024-02-26T13:57:51;5.50;;;4.62;;
67979;SDS011;54760;47.490;19.030;2024-02-26T14:00:18;5.70;;;5.20;;
67979;SDS011;54760;47.490;19.030;2024-02-26T14:02:45;9.57;;;5.87;;
67979;SDS011;54760;47.490;19.030;2024-02-26T14:05:10;8.57;;;5.62;;
67979;SDS011;54760;47.490;19.030;2024-02-26T14:07:36;8.10;;;5.30;;
67979;SDS011;54760;47.490;19.030;2024-02-26T14:10:01;6.80;;;5.10;;
67979;SDS011;54760;47.490;19.030;2024-02-26T14:12:27;6.05;;;5.22;;
67979;SDS011;54760;47.490;19.030;2024-02-26T14:14:53;11.77;;;5.05;;